Berrien Springs, MI (49103)

4:45 PM EDT on May 28, 2017 (GMT -0400)
Lake Union Conference | | Change Station

Elev 741 ft 41.97 °N, 86.38 °W | Updated 50 seconds ago

Partly Cloudy
Partly Cloudy
70.7 °F
Feels Like 72 °F
N
15.7
Wind Variable Wind from WNW
Gusts 17.5 mph

Today
High -- | Low -- °F
--% Chance of Precip.
Yesterday
High -- | Low -- °F
Precip. -- in
Pressure 29.71 in
Visibility 10.0 miles
Clouds Few 11000 ft
Heat Index 72 °F
Dew Point 63 °F
Humidity 77%
Rainfall 0.00 in
Snow Depth Not available.
6:14 AM 9:11 PM
Waxing Crescent, 13% visible
METAR KBEH 281953Z AUTO 30006KT 10SM FEW110 22/14 A2971 RMK AO2 SLP059 T02170139 $
Pressure 29.71 in
Visibility 10.0 miles
Clouds Few 11000 ft
Heat Index 72 °F
Dew Point 63 °F
Humidity 77%
Rainfall 0.00 in
Snow Depth Not available.
6:14 AM 9:11 PM
Waxing Crescent, 13% visible
METAR KBEH 281953Z AUTO 30006KT 10SM FEW110 22/14 A2971 RMK AO2 SLP059 T02170139 $

Get Severe Weather Alerts

Thanks for signing up!

Be on the lookout for a verification email in your inbox.

You'll start receiving the daily forecast at 6 AM.

×

10-Day Weather Forecast

Almanac

Astronomy

May. 28, 2017 Rise Set
Actual Time
Civil Twilight
Nautical Twilight
Astronomical Twilight
Moon
Length of Visible Light
Length of Day
Tomorrow will be .
, % of the Moon is Illuminated

Today's Extremes

State Highs State Lows

Community

WunderPhotos

Category 6

Welcome to Category 6. This is the collective home for Weather Underground's featured writeups by Dr. Jeff Masters (right), Bob Henson (left), Chris Burt, and other regular contributors.

Nearby

Air Quality

  Air Quality AQ Index Pollutant
Not available.

Snow Depth

Station Depth Elevation

Earthquake Activity

City Distance Mag. Time & Date
Minimum magnitude displayed is 2.5.

Coastal Water Temperatures

Place Temperature

Stations

Nearby Weather Stations

Station Location Temp. Windchill Dew Point Humidity Wind Precip. Elev Updated Type
                   

Watches & Warnings

There are currently no watches in effect.